Artemis — SWZE — position and weather

sailwx.info

Track history (hours):
 
Tides and Currents Weather Stations Pressure Air Temp Water Temp Dewpoint Dewpoint Depression Visibility Wind Speed Wind Dir Waves Ship Positions

Artemis

Last reported at 2015-Mar-26 13:16 UTC. Time now 2015-Mar-27 01:59 UTC.
Position N 37°25' E 024°44'.

Length 89 m.

MMSI: 237026300.

Date/timePositionNaut miles runAvg speedWind from/ knotsBaromVisibWave heightAir tempDewpointWater temp
2015-Mar-26 13:16N 37°25' E 024°44'1013.9
2015-Mar-26 12:33N 37°22' E 024°55'3 2.6
2015-Mar-26 11:16N 37°20' E 024°59'811.7
2015-Mar-26 10:33N 37°12' E 024°57'8 0.4
2015-Mar-25 13:34N 37°17' E 024°48'15 4.8
2015-Mar-25 10:31N 37°28' E 025°01'7 6.8
2015-Mar-25 09:33N 37°34' E 025°05'9 2.8
2015-Mar-25 06:24N 37°40' E 024°57'1214.5
2015-Mar-25 05:33N 37°32' E 025°09'26 2.2
2015-Mar-24 17:31N 37°06' E 025°06'6 0.6
2015-Mar-24 07:34N 37°06' E 024°59'6 5.4
2015-Mar-24 06:27N 37°09' E 025°06'28 2.6
2015-Mar-23 19:25N 37°31' E 024°44'1 0.1
2015-Mar-23 06:09N 37°31' E 024°44'30 2.8
2015-Mar-22 19:18N 37°06' E 025°06'9 0.9
2015-Mar-22 09:12N 37°07' E 024°55'15 9.2
2015-Mar-22 07:33N 37°14' E 025°12'1414.3
2015-Mar-22 06:34N 37°27' E 025°19'1111.2
2015-Mar-22 05:34N 37°27' E 025°05'19 1.1
2015-Mar-21 12:28N 37°09' E 025°11'910.0
2015-Mar-21 11:34N 37°06' E 025°22'3110.4
2015-Mar-21 08:33N 36°38' E 025°06'7 0.5
2015-Mar-20 18:28N 36°37' E 024°57'10 9.8
2015-Mar-20 17:25N 36°40' E 025°09'2010.6
2015-Mar-20 15:30N 36°59' E 025°18'8 8.5
2015-Mar-20 14:33N 37°06' E 025°22'14 7.1
2015-Mar-20 12:32N 37°11' E 025°05'1414.1
2015-Mar-20 11:32N 37°24' E 024°59'12 9.5
2015-Mar-20 10:19N 37°34' E 024°51'12 0.5
2015-Mar-19 10:28N 37°23' E 024°58'6 0.3
2015-Mar-18 13:33N 37°19' E 024°52'9 4.0
2015-Mar-18 11:24N 37°26' E 024°57'1213.7
2015-Mar-18 10:33N 37°32' E 025°09'7 7.3
2015-Mar-18 09:33N 37°36' E 025°02'3 1.0
2015-Mar-18 06:21N 37°39' E 024°59'1113.4
2015-Mar-18 05:34N 37°32' E 025°09'19 1.8
2015-Mar-17 18:33N 37°15' E 024°58'6 0.6
2015-Mar-17 08:33N 37°14' E 024°50'1313.3
2015-Mar-17 07:33N 37°08' E 025°04'1 1.5
2015-Mar-17 06:33N 37°09' E 025°06'1414.4
2015-Mar-17 05:33N 37°22' E 024°60'5 5.1
2015-Mar-17 04:33N 37°27' E 024°57'0 0.0
2015-Mar-17 03:32N 37°27' E 024°57'0 0.0
2015-Mar-17 02:19N 37°27' E 024°57'0 0.0
2015-Mar-17 01:32N 37°27' E 024°57'0 0.0
2015-Mar-17 00:32N 37°27' E 024°57'0 0.0
2015-Mar-16 23:31N 37°27' E 024°57'0 0.0
2015-Mar-16 22:32N 37°27' E 024°57'1 0.5
2015-Mar-16 21:29N 37°26' E 024°57'8 9.0
2015-Mar-16 20:33N 37°32' E 024°50'  
Track history (hours):
 
Tides and Currents Weather Stations Pressure Air Temp Water Temp Dewpoint Dewpoint Depression Visibility Wind Speed Wind Dir Waves Ship Positions

Artemis

Last reported at 2015-Mar-26 13:16 UTC. Time now 2015-Mar-27 01:59 UTC.
Position N 37°25' E 024°44'.

Length 89 m.

MMSI: 237026300.

Date/timePositionNaut miles runAvg speedWind from/ knotsBaromVisibWave heightAir tempDewpointWater temp
2015-Mar-26 13:16N 37°25' E 024°44'1013.9
2015-Mar-26 12:33N 37°22' E 024°55'3 2.6
2015-Mar-26 11:16N 37°20' E 024°59'811.7
2015-Mar-26 10:33N 37°12' E 024°57'8 0.4
2015-Mar-25 13:34N 37°17' E 024°48'15 4.8
2015-Mar-25 10:31N 37°28' E 025°01'7 6.8
2015-Mar-25 09:33N 37°34' E 025°05'9 2.8
2015-Mar-25 06:24N 37°40' E 024°57'1214.5
2015-Mar-25 05:33N 37°32' E 025°09'26 2.2
2015-Mar-24 17:31N 37°06' E 025°06'6 0.6
2015-Mar-24 07:34N 37°06' E 024°59'6 5.4
2015-Mar-24 06:27N 37°09' E 025°06'28 2.6
2015-Mar-23 19:25N 37°31' E 024°44'1 0.1
2015-Mar-23 06:09N 37°31' E 024°44'30 2.8
2015-Mar-22 19:18N 37°06' E 025°06'9 0.9
2015-Mar-22 09:12N 37°07' E 024°55'15 9.2
2015-Mar-22 07:33N 37°14' E 025°12'1414.3
2015-Mar-22 06:34N 37°27' E 025°19'1111.2
2015-Mar-22 05:34N 37°27' E 025°05'19 1.1
2015-Mar-21 12:28N 37°09' E 025°11'910.0
2015-Mar-21 11:34N 37°06' E 025°22'3110.4
2015-Mar-21 08:33N 36°38' E 025°06'7 0.5
2015-Mar-20 18:28N 36°37' E 024°57'10 9.8
2015-Mar-20 17:25N 36°40' E 025°09'2010.6
2015-Mar-20 15:30N 36°59' E 025°18'8 8.5
2015-Mar-20 14:33N 37°06' E 025°22'14 7.1
2015-Mar-20 12:32N 37°11' E 025°05'1414.1
2015-Mar-20 11:32N 37°24' E 024°59'12 9.5
2015-Mar-20 10:19N 37°34' E 024°51'12 0.5
2015-Mar-19 10:28N 37°23' E 024°58'6 0.3
2015-Mar-18 13:33N 37°19' E 024°52'9 4.0
2015-Mar-18 11:24N 37°26' E 024°57'1213.7
2015-Mar-18 10:33N 37°32' E 025°09'7 7.3
2015-Mar-18 09:33N 37°36' E 025°02'3 1.0
2015-Mar-18 06:21N 37°39' E 024°59'1113.4
2015-Mar-18 05:34N 37°32' E 025°09'19 1.8
2015-Mar-17 18:33N 37°15' E 024°58'6 0.6
2015-Mar-17 08:33N 37°14' E 024°50'1313.3
2015-Mar-17 07:33N 37°08' E 025°04'1 1.5
2015-Mar-17 06:33N 37°09' E 025°06'1414.4
2015-Mar-17 05:33N 37°22' E 024°60'5 5.1
2015-Mar-17 04:33N 37°27' E 024°57'0 0.0
2015-Mar-17 03:32N 37°27' E 024°57'0 0.0
2015-Mar-17 02:19N 37°27' E 024°57'0 0.0
2015-Mar-17 01:32N 37°27' E 024°57'0 0.0
2015-Mar-17 00:32N 37°27' E 024°57'0 0.0
2015-Mar-16 23:31N 37°27' E 024°57'0 0.0
2015-Mar-16 22:32N 37°27' E 024°57'1 0.5
2015-Mar-16 21:29N 37°26' E 024°57'8 9.0
2015-Mar-16 20:33N 37°32' E 024°50'  

Dump ship's entire track history